sensor_id;sensor_type;location;lat;lon;timestamp;temperature;humidity
10846;DHT22;5476;51.540;7.186;2023-06-19T00:00:28;26.60;88.20
10846;DHT22;5476;51.540;7.186;2023-06-19T00:02:56;26.60;88.80
10846;DHT22;5476;51.540;7.186;2023-06-19T00:05:22;26.60;88.60
10846;DHT22;5476;51.540;7.186;2023-06-19T00:07:52;26.50;87.60
10846;DHT22;5476;51.540;7.186;2023-06-19T00:10:19;26.60;87.60
10846;DHT22;5476;51.540;7.186;2023-06-19T00:12:46;26.40;88.20
10846;DHT22;5476;51.540;7.186;2023-06-19T00:15:13;26.60;87.80
10846;DHT22;5476;51.540;7.186;2023-06-19T00:17:39;26.60;88.70
10846;DHT22;5476;51.540;7.186;2023-06-19T00:20:07;26.60;88.90
10846;DHT22;5476;51.540;7.186;2023-06-19T00:22:34;26.60;90.00
10846;DHT22;5476;51.540;7.186;2023-06-19T00:25:03;26.60;88.90
10846;DHT22;5476;51.540;7.186;2023-06-19T00:27:30;26.50;90.00
10846;DHT22;5476;51.540;7.186;2023-06-19T00:29:57;26.60;90.20
10846;DHT22;5476;51.540;7.186;2023-06-19T00:32:28;26.50;90.10
10846;DHT22;5476;51.540;7.186;2023-06-19T00:34:55;26.50;90.20
10846;DHT22;5476;51.540;7.186;2023-06-19T00:37:22;26.30;90.30
10846;DHT22;5476;51.540;7.186;2023-06-19T00:39:49;26.30;90.50
10846;DHT22;5476;51.540;7.186;2023-06-19T00:42:17;26.30;90.70
10846;DHT22;5476;51.540;7.186;2023-06-19T00:44:44;26.20;90.90
10846;DHT22;5476;51.540;7.186;2023-06-19T00:47:11;26.10;91.20
10846;DHT22;5476;51.540;7.186;2023-06-19T00:49:38;26.00;91.70
10846;DHT22;5476;51.540;7.186;2023-06-19T00:52:08;26.00;92.00
10846;DHT22;5476;51.540;7.186;2023-06-19T00:54:35;25.90;92.80
10846;DHT22;5476;51.540;7.186;2023-06-19T00:57:02;25.90;92.40
10846;DHT22;5476;51.540;7.186;2023-06-19T00:59:31;25.80;93.00
10846;DHT22;5476;51.540;7.186;2023-06-19T01:01:58;25.90;93.10
10846;DHT22;5476;51.540;7.186;2023-06-19T01:04:26;25.90;93.70
10846;DHT22;5476;51.540;7.186;2023-06-19T01:06:55;25.90;93.60
10846;DHT22;5476;51.540;7.186;2023-06-19T01:09:27;25.90;94.00
10846;DHT22;5476;51.540;7.186;2023-06-19T01:14:48;25.90;94.50
10846;DHT22;5476;51.540;7.186;2023-06-19T01:17:16;25.80;94.90
10846;DHT22;5476;51.540;7.186;2023-06-19T01:19:43;25.90;94.30
10846;DHT22;5476;51.540;7.186;2023-06-19T01:22:23;25.80;94.80
10846;DHT22;5476;51.540;7.186;2023-06-19T01:24:50;25.80;95.60
10846;DHT22;5476;51.540;7.186;2023-06-19T01:27:17;25.80;95.40
10846;DHT22;5476;51.540;7.186;2023-06-19T01:29:44;25.70;95.50
10846;DHT22;5476;51.540;7.186;2023-06-19T01:32:15;25.60;95.70
10846;DHT22;5476;51.540;7.186;2023-06-19T01:34:46;25.70;96.70
10846;DHT22;5476;51.540;7.186;2023-06-19T01:37:15;25.70;96.60
10846;DHT22;5476;51.540;7.186;2023-06-19T01:39:43;25.70;96.70
10846;DHT22;5476;51.540;7.186;2023-06-19T01:42:12;25.70;96.80
10846;DHT22;5476;51.540;7.186;2023-06-19T01:44:40;25.70;97.10
10846;DHT22;5476;51.540;7.186;2023-06-19T01:47:09;25.80;97.30
10846;DHT22;5476;51.540;7.186;2023-06-19T01:49:36;25.80;97.70
10846;DHT22;5476;51.540;7.186;2023-06-19T01:52:04;25.80;97.60
10846;DHT22;5476;51.540;7.186;2023-06-19T01:54:33;25.70;98.10
10846;DHT22;5476;51.540;7.186;2023-06-19T01:56:59;25.70;98.00
10846;DHT22;5476;51.540;7.186;2023-06-19T01:59:26;25.60;98.30
10846;DHT22;5476;51.540;7.186;2023-06-19T02:01:53;25.70;98.60
10846;DHT22;5476;51.540;7.186;2023-06-19T02:04:20;25.60;98.80
10846;DHT22;5476;51.540;7.186;2023-06-19T02:06:47;25.60;98.70
10846;DHT22;5476;51.540;7.186;2023-06-19T02:09:14;25.50;98.60
10846;DHT22;5476;51.540;7.186;2023-06-19T02:11:42;25.50;99.20
10846;DHT22;5476;51.540;7.186;2023-06-19T02:14:10;25.50;99.50
10846;DHT22;5476;51.540;7.186;2023-06-19T02:16:37;25.50;99.80
10846;DHT22;5476;51.540;7.186;2023-06-19T02:19:04;25.50;99.90
10846;DHT22;5476;51.540;7.186;2023-06-19T02:21:31;25.40;99.80
10846;DHT22;5476;51.540;7.186;2023-06-19T02:23:57;25.40;99.90
10846;DHT22;5476;51.540;7.186;2023-06-19T02:26:24;25.40;99.90
10846;DHT22;5476;51.540;7.186;2023-06-19T02:28:55;25.40;99.90
10846;DHT22;5476;51.540;7.186;2023-06-19T02:31:22;25.40;99.90
10846;DHT22;5476;51.540;7.186;2023-06-19T02:33:50;25.40;99.90
10846;DHT22;5476;51.540;7.186;2023-06-19T02:36:17;25.30;99.90
10846;DHT22;5476;51.540;7.186;2023-06-19T02:38:45;25.30;99.90
10846;DHT22;5476;51.540;7.186;2023-06-19T02:41:12;25.20;99.90
10846;DHT22;5476;51.540;7.186;2023-06-19T02:43:40;25.10;99.90
10846;DHT22;5476;51.540;7.186;2023-06-19T02:46:09;25.10;99.90
10846;DHT22;5476;51.540;7.186;2023-06-19T02:48:36;25.20;99.90
10846;DHT22;5476;51.540;7.186;2023-06-19T02:51:03;25.20;99.90
10846;DHT22;5476;51.540;7.186;2023-06-19T02:53:30;25.10;99.90
10846;DHT22;5476;51.540;7.186;2023-06-19T02:55:57;25.10;99.90
10846;DHT22;5476;51.540;7.186;2023-06-19T02:58:24;24.90;99.90
10846;DHT22;5476;51.540;7.186;2023-06-19T03:00:52;24.70;99.90
10846;DHT22;5476;51.540;7.186;2023-06-19T03:03:20;24.70;99.90
10846;DHT22;5476;51.540;7.186;2023-06-19T03:05:48;24.50;99.90
10846;DHT22;5476;51.540;7.186;2023-06-19T03:08:15;24.60;99.90
10846;DHT22;5476;51.540;7.186;2023-06-19T03:10:42;24.50;99.90
10846;DHT22;5476;51.540;7.186;2023-06-19T03:13:09;24.50;99.90
10846;DHT22;5476;51.540;7.186;2023-06-19T03:15:36;24.50;99.90
10846;DHT22;5476;51.540;7.186;2023-06-19T03:18:02;24.40;99.90
10846;DHT22;5476;51.540;7.186;2023-06-19T03:20:33;24.30;99.90
10846;DHT22;5476;51.540;7.186;2023-06-19T03:23:00;24.20;99.90
10846;DHT22;5476;51.540;7.186;2023-06-19T03:25:27;24.20;99.90
10846;DHT22;5476;51.540;7.186;2023-06-19T03:28:00;24.20;99.90
10846;DHT22;5476;51.540;7.186;2023-06-19T03:30:27;24.10;99.90
10846;DHT22;5476;51.540;7.186;2023-06-19T03:32:54;24.10;99.90
10846;DHT22;5476;51.540;7.186;2023-06-19T03:35:21;24.00;99.90
10846;DHT22;5476;51.540;7.186;2023-06-19T03:37:49;24.00;99.90
10846;DHT22;5476;51.540;7.186;2023-06-19T03:40:33;24.00;99.90
10846;DHT22;5476;51.540;7.186;2023-06-19T03:43:00;24.00;99.90
10846;DHT22;5476;51.540;7.186;2023-06-19T03:45:27;23.90;99.90
10846;DHT22;5476;51.540;7.186;2023-06-19T03:47:54;23.90;99.90
10846;DHT22;5476;51.540;7.186;2023-06-19T03:50:21;23.90;99.90
10846;DHT22;5476;51.540;7.186;2023-06-19T03:52:49;23.90;99.90
10846;DHT22;5476;51.540;7.186;2023-06-19T03:55:16;23.80;99.90
10846;DHT22;5476;51.540;7.186;2023-06-19T03:57:43;23.80;99.90
10846;DHT22;5476;51.540;7.186;2023-06-19T04:00:11;23.80;99.90
10846;DHT22;5476;51.540;7.186;2023-06-19T04:02:38;23.80;99.90
10846;DHT22;5476;51.540;7.186;2023-06-19T04:05:06;23.70;99.90
10846;DHT22;5476;51.540;7.186;2023-06-19T04:07:33;23.70;99.90
10846;DHT22;5476;51.540;7.186;2023-06-19T04:10:02;23.60;99.90
10846;DHT22;5476;51.540;7.186;2023-06-19T04:12:29;23.50;99.90
10846;DHT22;5476;51.540;7.186;2023-06-19T04:14:55;23.60;99.90
10846;DHT22;5476;51.540;7.186;2023-06-19T04:17:22;23.70;99.90
10846;DHT22;5476;51.540;7.186;2023-06-19T04:19:49;23.70;99.90
10846;DHT22;5476;51.540;7.186;2023-06-19T04:22:16;23.60;99.90
10846;DHT22;5476;51.540;7.186;2023-06-19T04:24:43;23.60;99.90
10846;DHT22;5476;51.540;7.186;2023-06-19T04:27:11;23.60;99.90
10846;DHT22;5476;51.540;7.186;2023-06-19T04:29:38;23.60;99.90
10846;DHT22;5476;51.540;7.186;2023-06-19T04:32:08;23.50;99.90
10846;DHT22;5476;51.540;7.186;2023-06-19T04:34:38;23.30;99.90
10846;DHT22;5476;51.540;7.186;2023-06-19T04:37:05;23.20;99.90
10846;DHT22;5476;51.540;7.186;2023-06-19T04:39:33;23.10;99.90
10846;DHT22;5476;51.540;7.186;2023-06-19T04:42:00;23.10;99.90
10846;DHT22;5476;51.540;7.186;2023-06-19T04:44:28;23.20;99.90
10846;DHT22;5476;51.540;7.186;2023-06-19T04:46:59;23.10;99.90
10846;DHT22;5476;51.540;7.186;2023-06-19T04:49:27;22.90;99.90
10846;DHT22;5476;51.540;7.186;2023-06-19T04:51:55;23.00;99.90
10846;DHT22;5476;51.540;7.186;2023-06-19T04:54:22;23.00;99.90
10846;DHT22;5476;51.540;7.186;2023-06-19T04:56:49;22.90;99.90
10846;DHT22;5476;51.540;7.186;2023-06-19T04:59:16;22.90;99.90
10846;DHT22;5476;51.540;7.186;2023-06-19T05:01:46;22.80;99.90
10846;DHT22;5476;51.540;7.186;2023-06-19T05:04:13;22.80;99.90
10846;DHT22;5476;51.540;7.186;2023-06-19T05:06:40;22.90;99.90
10846;DHT22;5476;51.540;7.186;2023-06-19T05:09:08;22.90;99.90
10846;DHT22;5476;51.540;7.186;2023-06-19T05:11:35;22.20;99.90
10846;DHT22;5476;51.540;7.186;2023-06-19T05:14:02;22.90;99.90
10846;DHT22;5476;51.540;7.186;2023-06-19T05:16:29;22.90;99.90
10846;DHT22;5476;51.540;7.186;2023-06-19T05:18:57;22.90;99.90
10846;DHT22;5476;51.540;7.186;2023-06-19T05:21:24;23.00;99.90
10846;DHT22;5476;51.540;7.186;2023-06-19T05:23:52;23.00;99.90
10846;DHT22;5476;51.540;7.186;2023-06-19T05:26:19;23.00;99.90
10846;DHT22;5476;51.540;7.186;2023-06-19T05:28:47;22.90;99.90
10846;DHT22;5476;51.540;7.186;2023-06-19T05:31:14;23.00;99.90
10846;DHT22;5476;51.540;7.186;2023-06-19T05:33:41;22.90;99.90
10846;DHT22;5476;51.540;7.186;2023-06-19T05:36:10;22.90;99.90
10846;DHT22;5476;51.540;7.186;2023-06-19T05:38:38;22.90;99.90
10846;DHT22;5476;51.540;7.186;2023-06-19T05:41:05;23.00;99.90
10846;DHT22;5476;51.540;7.186;2023-06-19T05:43:32;22.90;99.90
10846;DHT22;5476;51.540;7.186;2023-06-19T05:45:59;22.90;99.90
10846;DHT22;5476;51.540;7.186;2023-06-19T05:48:28;22.90;99.90
10846;DHT22;5476;51.540;7.186;2023-06-19T05:50:55;22.90;99.90
10846;DHT22;5476;51.540;7.186;2023-06-19T05:53:23;23.00;99.90
10846;DHT22;5476;51.540;7.186;2023-06-19T05:55:51;22.70;99.90
10846;DHT22;5476;51.540;7.186;2023-06-19T05:58:20;22.70;99.90
10846;DHT22;5476;51.540;7.186;2023-06-19T06:00:49;22.70;99.90
10846;DHT22;5476;51.540;7.186;2023-06-19T06:03:16;24.60;99.90
10846;DHT22;5476;51.540;7.186;2023-06-19T06:05:43;22.60;99.90
10846;DHT22;5476;51.540;7.186;2023-06-19T06:08:14;22.70;99.90
10846;DHT22;5476;51.540;7.186;2023-06-19T06:10:42;22.80;99.90
10846;DHT22;5476;51.540;7.186;2023-06-19T06:13:10;23.80;99.90
10846;DHT22;5476;51.540;7.186;2023-06-19T06:15:37;22.80;99.90
10846;DHT22;5476;51.540;7.186;2023-06-19T06:18:04;22.90;99.90
10846;DHT22;5476;51.540;7.186;2023-06-19T06:20:31;23.00;99.90
10846;DHT22;5476;51.540;7.186;2023-06-19T06:22:58;23.00;99.90
10846;DHT22;5476;51.540;7.186;2023-06-19T06:25:25;22.80;99.90
10846;DHT22;5476;51.540;7.186;2023-06-19T06:27:53;22.80;99.90
10846;DHT22;5476;51.540;7.186;2023-06-19T06:30:20;22.80;99.90
10846;DHT22;5476;51.540;7.186;2023-06-19T06:32:48;22.70;99.90
10846;DHT22;5476;51.540;7.186;2023-06-19T06:35:15;22.80;99.90
10846;DHT22;5476;51.540;7.186;2023-06-19T06:37:42;22.90;99.90
10846;DHT22;5476;51.540;7.186;2023-06-19T06:40:11;23.00;99.90
10846;DHT22;5476;51.540;7.186;2023-06-19T06:42:38;23.10;99.90
10846;DHT22;5476;51.540;7.186;2023-06-19T06:45:08;23.10;99.90
10846;DHT22;5476;51.540;7.186;2023-06-19T06:47:35;23.20;99.90
10846;DHT22;5476;51.540;7.186;2023-06-19T06:50:03;23.40;99.90
10846;DHT22;5476;51.540;7.186;2023-06-19T06:52:30;23.40;99.90
10846;DHT22;5476;51.540;7.186;2023-06-19T06:54:57;23.50;99.90
10846;DHT22;5476;51.540;7.186;2023-06-19T06:57:24;23.40;99.90
10846;DHT22;5476;51.540;7.186;2023-06-19T06:59:51;23.40;99.90
10846;DHT22;5476;51.540;7.186;2023-06-19T07:02:22;23.50;99.90
10846;DHT22;5476;51.540;7.186;2023-06-19T07:04:49;23.60;99.90
10846;DHT22;5476;51.540;7.186;2023-06-19T07:07:17;23.50;99.90
10846;DHT22;5476;51.540;7.186;2023-06-19T07:09:51;23.60;99.90
10846;DHT22;5476;51.540;7.186;2023-06-19T07:12:18;23.70;99.90
10846;DHT22;5476;51.540;7.186;2023-06-19T07:14:45;23.60;99.90
10846;DHT22;5476;51.540;7.186;2023-06-19T07:17:12;23.60;99.90
10846;DHT22;5476;51.540;7.186;2023-06-19T07:19:40;23.80;99.90
10846;DHT22;5476;51.540;7.186;2023-06-19T07:22:07;23.00;99.90
10846;DHT22;5476;51.540;7.186;2023-06-19T07:24:34;23.80;99.90
10846;DHT22;5476;51.540;7.186;2023-06-19T07:27:02;23.80;99.90
10846;DHT22;5476;51.540;7.186;2023-06-19T07:29:29;23.90;99.90
10846;DHT22;5476;51.540;7.186;2023-06-19T07:31:56;23.80;99.90
10846;DHT22;5476;51.540;7.186;2023-06-19T07:34:23;23.80;99.90
10846;DHT22;5476;51.540;7.186;2023-06-19T07:36:52;23.70;99.90
10846;DHT22;5476;51.540;7.186;2023-06-19T07:39:19;23.70;99.90
10846;DHT22;5476;51.540;7.186;2023-06-19T07:41:46;23.60;99.90
10846;DHT22;5476;51.540;7.186;2023-06-19T07:44:14;23.60;99.90
10846;DHT22;5476;51.540;7.186;2023-06-19T07:46:43;23.60;99.90
10846;DHT22;5476;51.540;7.186;2023-06-19T07:49:10;21.60;99.90
10846;DHT22;5476;51.540;7.186;2023-06-19T07:51:37;23.40;99.90
10846;DHT22;5476;51.540;7.186;2023-06-19T07:54:05;23.40;99.90
10846;DHT22;5476;51.540;7.186;2023-06-19T07:56:32;23.40;99.90
10846;DHT22;5476;51.540;7.186;2023-06-19T07:58:59;23.30;99.90
10846;DHT22;5476;51.540;7.186;2023-06-19T08:01:26;23.40;99.90
10846;DHT22;5476;51.540;7.186;2023-06-19T08:03:53;23.20;99.90
10846;DHT22;5476;51.540;7.186;2023-06-19T08:06:20;23.20;99.90
10846;DHT22;5476;51.540;7.186;2023-06-19T08:08:47;23.20;99.90
10846;DHT22;5476;51.540;7.186;2023-06-19T08:11:15;23.10;99.90
10846;DHT22;5476;51.540;7.186;2023-06-19T08:13:42;23.10;99.90
10846;DHT22;5476;51.540;7.186;2023-06-19T08:16:09;23.20;99.90
10846;DHT22;5476;51.540;7.186;2023-06-19T08:18:36;23.40;99.90
10846;DHT22;5476;51.540;7.186;2023-06-19T08:22:05;23.60;99.90
10846;DHT22;5476;51.540;7.186;2023-06-19T08:49:08;24.40;99.90
10846;DHT22;5476;51.540;7.186;2023-06-19T08:51:36;24.40;99.90
10846;DHT22;5476;51.540;7.186;2023-06-19T08:54:04;24.40;99.90
10846;DHT22;5476;51.540;7.186;2023-06-19T08:56:34;24.40;99.90
10846;DHT22;5476;51.540;7.186;2023-06-19T08:59:17;24.20;99.90
10846;DHT22;5476;51.540;7.186;2023-06-19T09:01:47;24.20;99.90
10846;DHT22;5476;51.540;7.186;2023-06-19T09:04:19;24.50;99.90
10846;DHT22;5476;51.540;7.186;2023-06-19T09:06:48;24.80;99.90
10846;DHT22;5476;51.540;7.186;2023-06-19T09:12:00;24.70;99.90
10846;DHT22;5476;51.540;7.186;2023-06-19T09:14:34;24.70;99.90
10846;DHT22;5476;51.540;7.186;2023-06-19T09:17:02;24.80;99.90
10846;DHT22;5476;51.540;7.186;2023-06-19T09:22:00;25.00;99.90
10846;DHT22;5476;51.540;7.186;2023-06-19T09:24:34;25.10;99.90
10846;DHT22;5476;51.540;7.186;2023-06-19T09:27:11;25.20;99.90
10846;DHT22;5476;51.540;7.186;2023-06-19T09:29:39;25.00;99.90
10846;DHT22;5476;51.540;7.186;2023-06-19T09:32:17;25.10;99.90
10846;DHT22;5476;51.540;7.186;2023-06-19T09:42:08;25.10;99.90
10846;DHT22;5476;51.540;7.186;2023-06-19T09:44:42;25.60;99.90
10846;DHT22;5476;51.540;7.186;2023-06-19T09:47:15;25.50;99.90
10846;DHT22;5476;51.540;7.186;2023-06-19T09:49:48;25.60;99.90
10846;DHT22;5476;51.540;7.186;2023-06-19T09:57:22;25.60;99.90
10846;DHT22;5476;51.540;7.186;2023-06-19T09:59:51;25.60;99.90
10846;DHT22;5476;51.540;7.186;2023-06-19T10:02:19;25.60;99.90
10846;DHT22;5476;51.540;7.186;2023-06-19T10:04:49;25.60;99.90
10846;DHT22;5476;51.540;7.186;2023-06-19T10:07:18;25.60;99.90
10846;DHT22;5476;51.540;7.186;2023-06-19T10:10:00;25.70;99.90
10846;DHT22;5476;51.540;7.186;2023-06-19T10:15:15;25.80;99.90
10846;DHT22;5476;51.540;7.186;2023-06-19T10:17:45;25.80;99.90
10846;DHT22;5476;51.540;7.186;2023-06-19T10:20:24;25.90;99.90
10846;DHT22;5476;51.540;7.186;2023-06-19T10:22:57;26.00;99.90
10846;DHT22;5476;51.540;7.186;2023-06-19T10:25:27;26.20;99.90
10846;DHT22;5476;51.540;7.186;2023-06-19T10:27:56;26.20;99.90
10846;DHT22;5476;51.540;7.186;2023-06-19T10:37:50;26.30;99.90
10846;DHT22;5476;51.540;7.186;2023-06-19T10:45:14;26.60;99.90
10846;DHT22;5476;51.540;7.186;2023-06-19T10:52:40;26.80;99.90
10846;DHT22;5476;51.540;7.186;2023-06-19T10:55:09;26.90;99.90
10846;DHT22;5476;51.540;7.186;2023-06-19T11:00:05;27.00;99.90
10846;DHT22;5476;51.540;7.186;2023-06-19T11:02:39;27.10;99.90
10846;DHT22;5476;51.540;7.186;2023-06-19T11:12:32;27.30;99.40
10846;DHT22;5476;51.540;7.186;2023-06-19T11:19:56;27.30;97.30
10846;DHT22;5476;51.540;7.186;2023-06-19T11:22:35;27.30;98.10
10846;DHT22;5476;51.540;7.186;2023-06-19T11:27:31;27.50;97.20
10846;DHT22;5476;51.540;7.186;2023-06-19T11:32:30;27.50;96.30
10846;DHT22;5476;51.540;7.186;2023-06-19T11:35:05;27.60;96.30
10846;DHT22;5476;51.540;7.186;2023-06-19T11:42:44;27.80;94.90
10846;DHT22;5476;51.540;7.186;2023-06-19T11:50:08;27.60;93.70
10846;DHT22;5476;51.540;7.186;2023-06-19T12:02:30;27.80;93.80
10846;DHT22;5476;51.540;7.186;2023-06-19T12:07:26;28.20;91.10
10846;DHT22;5476;51.540;7.186;2023-06-19T12:44:22;29.40;81.30
10846;DHT22;5476;51.540;7.186;2023-06-19T12:51:46;29.60;77.00
10846;DHT22;5476;51.540;7.186;2023-06-19T13:16:26;29.30;75.90
10846;DHT22;5476;51.540;7.186;2023-06-19T13:18:53;29.30;76.20
10846;DHT22;5476;51.540;7.186;2023-06-19T13:28:42;29.50;75.70
10846;DHT22;5476;51.540;7.186;2023-06-19T13:33:37;29.70;74.40
10846;DHT22;5476;51.540;7.186;2023-06-19T13:36:04;29.60;73.60
10846;DHT22;5476;51.540;7.186;2023-06-19T13:38:31;29.70;73.70
10846;DHT22;5476;51.540;7.186;2023-06-19T13:48:20;29.90;72.20
10846;DHT22;5476;51.540;7.186;2023-06-19T13:50:48;29.90;71.60
10846;DHT22;5476;51.540;7.186;2023-06-19T14:00:36;30.10;70.00
10846;DHT22;5476;51.540;7.186;2023-06-19T14:08:01;30.60;68.20
10846;DHT22;5476;51.540;7.186;2023-06-19T14:10:28;30.60;67.90
10846;DHT22;5476;51.540;7.186;2023-06-19T14:17:49;31.00;67.40
10846;DHT22;5476;51.540;7.186;2023-06-19T14:20:16;31.10;66.90
10846;DHT22;5476;51.540;7.186;2023-06-19T14:22:43;31.30;66.20
10846;DHT22;5476;51.540;7.186;2023-06-19T14:25:11;31.20;66.20
10846;DHT22;5476;51.540;7.186;2023-06-19T14:27:38;31.00;65.60
10846;DHT22;5476;51.540;7.186;2023-06-19T14:30:06;31.00;65.80
10846;DHT22;5476;51.540;7.186;2023-06-19T14:32:35;31.00;66.20
10846;DHT22;5476;51.540;7.186;2023-06-19T14:35:02;31.20;65.80
10846;DHT22;5476;51.540;7.186;2023-06-19T14:37:29;31.30;66.00
10846;DHT22;5476;51.540;7.186;2023-06-19T14:39:56;31.50;65.60
10846;DHT22;5476;51.540;7.186;2023-06-19T14:42:24;31.70;64.60
10846;DHT22;5476;51.540;7.186;2023-06-19T14:47:18;32.20;63.50
10846;DHT22;5476;51.540;7.186;2023-06-19T14:52:13;32.40;61.70
10846;DHT22;5476;51.540;7.186;2023-06-19T14:54:40;32.40;61.10
10846;DHT22;5476;51.540;7.186;2023-06-19T14:59:36;32.20;60.80
10846;DHT22;5476;51.540;7.186;2023-06-19T15:16:50;32.50;59.70
10846;DHT22;5476;51.540;7.186;2023-06-19T15:26:38;32.40;59.40
10846;DHT22;5476;51.540;7.186;2023-06-19T15:31:32;32.50;58.60
10846;DHT22;5476;51.540;7.186;2023-06-19T15:34:01;32.60;58.50
10846;DHT22;5476;51.540;7.186;2023-06-19T15:36:27;32.70;58.30
10846;DHT22;5476;51.540;7.186;2023-06-19T15:51:21;33.10;56.60
10846;DHT22;5476;51.540;7.186;2023-06-19T17:41:06;31.00;64.50
10846;DHT22;5476;51.540;7.186;2023-06-19T17:43:33;31.10;63.50
10846;DHT22;5476;51.540;7.186;2023-06-19T17:46:00;31.10;61.80
10846;DHT22;5476;51.540;7.186;2023-06-19T17:48:27;31.10;60.90
10846;DHT22;5476;51.540;7.186;2023-06-19T18:07:59;27.90;57.40
10846;DHT22;5476;51.540;7.186;2023-06-19T18:10:26;31.60;59.30
10846;DHT22;5476;51.540;7.186;2023-06-19T18:12:53;31.70;59.70
10846;DHT22;5476;51.540;7.186;2023-06-19T18:15:20;31.80;59.50
10846;DHT22;5476;51.540;7.186;2023-06-19T18:17:49;29.00;57.60
10846;DHT22;5476;51.540;7.186;2023-06-19T18:20:16;31.90;59.40
10846;DHT22;5476;51.540;7.186;2023-06-19T18:22:44;31.90;60.50
10846;DHT22;5476;51.540;7.186;2023-06-19T18:28:16;31.70;60.80
10846;DHT22;5476;51.540;7.186;2023-06-19T18:31:00;31.70;60.80
10846;DHT22;5476;51.540;7.186;2023-06-19T18:33:43;31.70;61.10
10846;DHT22;5476;51.540;7.186;2023-06-19T18:36:10;31.70;61.20
10846;DHT22;5476;51.540;7.186;2023-06-19T18:38:39;31.70;61.40
10846;DHT22;5476;51.540;7.186;2023-06-19T18:43:46;31.50;61.50
10846;DHT22;5476;51.540;7.186;2023-06-19T18:46:13;31.60;61.20
10846;DHT22;5476;51.540;7.186;2023-06-19T18:48:40;31.40;61.20
10846;DHT22;5476;51.540;7.186;2023-06-19T18:51:11;31.30;61.40
10846;DHT22;5476;51.540;7.186;2023-06-19T18:53:40;31.30;61.50
10846;DHT22;5476;51.540;7.186;2023-06-19T18:56:07;31.20;61.30
10846;DHT22;5476;51.540;7.186;2023-06-19T18:58:34;31.20;61.20
10846;DHT22;5476;51.540;7.186;2023-06-19T19:01:02;31.20;60.90
10846;DHT22;5476;51.540;7.186;2023-06-19T19:03:29;31.20;61.40
10846;DHT22;5476;51.540;7.186;2023-06-19T19:05:56;31.10;61.50
10846;DHT22;5476;51.540;7.186;2023-06-19T19:08:23;31.10;61.80
10846;DHT22;5476;51.540;7.186;2023-06-19T19:10:50;31.10;61.90
10846;DHT22;5476;51.540;7.186;2023-06-19T19:13:17;31.00;62.00
10846;DHT22;5476;51.540;7.186;2023-06-19T19:15:47;31.00;61.90
10846;DHT22;5476;51.540;7.186;2023-06-19T19:18:15;30.90;61.90
10846;DHT22;5476;51.540;7.186;2023-06-19T19:20:45;30.80;61.90
10846;DHT22;5476;51.540;7.186;2023-06-19T19:23:17;30.80;62.30
10846;DHT22;5476;51.540;7.186;2023-06-19T19:25:44;30.90;68.30
10846;DHT22;5476;51.540;7.186;2023-06-19T19:28:11;31.10;65.80
10846;DHT22;5476;51.540;7.186;2023-06-19T19:30:40;31.00;65.80
10846;DHT22;5476;51.540;7.186;2023-06-19T19:33:12;31.00;64.30
10846;DHT22;5476;51.540;7.186;2023-06-19T19:35:41;31.10;64.80
10846;DHT22;5476;51.540;7.186;2023-06-19T19:38:22;30.80;64.40
10846;DHT22;5476;51.540;7.186;2023-06-19T19:43:16;30.70;63.80
10846;DHT22;5476;51.540;7.186;2023-06-19T19:45:43;30.60;64.30
10846;DHT22;5476;51.540;7.186;2023-06-19T19:48:15;30.60;64.80
10846;DHT22;5476;51.540;7.186;2023-06-19T19:50:43;30.60;64.80
10846;DHT22;5476;51.540;7.186;2023-06-19T19:53:23;30.50;65.50
10846;DHT22;5476;51.540;7.186;2023-06-19T19:56:03;30.40;65.80
10846;DHT22;5476;51.540;7.186;2023-06-19T19:58:42;30.30;66.10
10846;DHT22;5476;51.540;7.186;2023-06-19T20:01:15;30.20;66.70
10846;DHT22;5476;51.540;7.186;2023-06-19T20:06:12;30.10;67.10
10846;DHT22;5476;51.540;7.186;2023-06-19T20:08:41;30.10;66.60
10846;DHT22;5476;51.540;7.186;2023-06-19T20:16:03;30.00;66.50
10846;DHT22;5476;51.540;7.186;2023-06-19T20:18:30;30.10;66.80
10846;DHT22;5476;51.540;7.186;2023-06-19T20:23:25;30.00;66.90
10846;DHT22;5476;51.540;7.186;2023-06-19T20:25:52;29.90;67.00
10846;DHT22;5476;51.540;7.186;2023-06-19T20:28:22;29.90;67.00
10846;DHT22;5476;51.540;7.186;2023-06-19T20:35:57;29.80;67.00
10846;DHT22;5476;51.540;7.186;2023-06-19T20:38:35;29.70;67.30
10846;DHT22;5476;51.540;7.186;2023-06-19T20:46:05;29.50;68.40
10846;DHT22;5476;51.540;7.186;2023-06-19T20:55:59;29.40;70.50
10846;DHT22;5476;51.540;7.186;2023-06-19T21:00:54;29.30;71.80
10846;DHT22;5476;51.540;7.186;2023-06-19T21:03:24;29.10;72.50
10846;DHT22;5476;51.540;7.186;2023-06-19T21:05:54;29.00;73.30
10846;DHT22;5476;51.540;7.186;2023-06-19T21:08:25;29.00;73.90
10846;DHT22;5476;51.540;7.186;2023-06-19T21:11:07;28.80;74.20
10846;DHT22;5476;51.540;7.186;2023-06-19T21:13:50;28.70;75.60
10846;DHT22;5476;51.540;7.186;2023-06-19T21:18:50;28.60;77.20
10846;DHT22;5476;51.540;7.186;2023-06-19T21:23:47;28.50;77.80
10846;DHT22;5476;51.540;7.186;2023-06-19T21:26:18;28.60;78.40
10846;DHT22;5476;51.540;7.186;2023-06-19T21:38:36;28.30;80.80
10846;DHT22;5476;51.540;7.186;2023-06-19T21:43:33;24.40;77.50
10846;DHT22;5476;51.540;7.186;2023-06-19T21:53:22;28.10;81.30
10846;DHT22;5476;51.540;7.186;2023-06-19T22:00:49;28.00;82.60
10846;DHT22;5476;51.540;7.186;2023-06-19T22:10:41;25.10;82.70
10846;DHT22;5476;51.540;7.186;2023-06-19T22:13:16;27.70;85.40
10846;DHT22;5476;51.540;7.186;2023-06-19T22:15:43;27.60;86.30
10846;DHT22;5476;51.540;7.186;2023-06-19T22:18:11;27.60;87.20
10846;DHT22;5476;51.540;7.186;2023-06-19T22:23:08;27.50;88.60
10846;DHT22;5476;51.540;7.186;2023-06-19T22:25:35;28.50;89.30
10846;DHT22;5476;51.540;7.186;2023-06-19T22:28:02;27.50;89.20
10846;DHT22;5476;51.540;7.186;2023-06-19T22:30:29;27.50;90.00
10846;DHT22;5476;51.540;7.186;2023-06-19T22:35:24;27.30;90.30
10846;DHT22;5476;51.540;7.186;2023-06-19T22:37:51;27.20;90.70
10846;DHT22;5476;51.540;7.186;2023-06-19T22:40:18;27.30;91.00
10846;DHT22;5476;51.540;7.186;2023-06-19T22:42:44;27.20;91.10
10846;DHT22;5476;51.540;7.186;2023-06-19T22:45:11;27.20;91.30
10846;DHT22;5476;51.540;7.186;2023-06-19T22:47:38;27.10;91.60
10846;DHT22;5476;51.540;7.186;2023-06-19T22:50:06;27.10;91.60
10846;DHT22;5476;51.540;7.186;2023-06-19T22:52:35;27.10;91.90
10846;DHT22;5476;51.540;7.186;2023-06-19T22:55:03;27.10;91.90
10846;DHT22;5476;51.540;7.186;2023-06-19T22:57:31;27.00;92.30
10846;DHT22;5476;51.540;7.186;2023-06-19T23:00:00;26.90;92.40
10846;DHT22;5476;51.540;7.186;2023-06-19T23:02:31;26.90;92.80
10846;DHT22;5476;51.540;7.186;2023-06-19T23:04:57;26.90;93.00
10846;DHT22;5476;51.540;7.186;2023-06-19T23:07:24;26.80;93.20
10846;DHT22;5476;51.540;7.186;2023-06-19T23:09:53;26.80;93.10
10846;DHT22;5476;51.540;7.186;2023-06-19T23:12:19;26.80;93.20
10846;DHT22;5476;51.540;7.186;2023-06-19T23:14:47;26.70;93.30
10846;DHT22;5476;51.540;7.186;2023-06-19T23:17:14;26.70;93.60
10846;DHT22;5476;51.540;7.186;2023-06-19T23:19:42;26.70;94.00
10846;DHT22;5476;51.540;7.186;2023-06-19T23:22:09;26.70;94.10
10846;DHT22;5476;51.540;7.186;2023-06-19T23:24:39;26.60;94.40